createdAt,value
2022-10-17T07:57:01.968Z,997.38
2022-10-17T07:58:15.480Z,997.34
2022-10-17T07:59:10.637Z,997.33
2022-10-17T08:00:19.321Z,997.31
2022-10-17T12:17:34.071Z,996.43
2022-10-17T12:18:36.911Z,996.44
2022-10-17T12:19:39.889Z,996.4
2022-10-17T12:20:42.725Z,996.39
2022-10-17T12:21:45.626Z,996.39
2022-10-17T12:22:48.469Z,996.41
2022-10-17T12:23:51.377Z,996.41
2022-10-17T12:24:54.256Z,996.41
2022-10-17T12:26:09.400Z,996.36
2022-10-17T12:26:58.389Z,996.38
2022-10-17T12:28:02.043Z,996.4
2022-10-17T12:29:02.821Z,996.36
2022-10-17T12:30:02.353Z,996.38
2022-10-17T12:31:05.205Z,996.39
2022-10-17T12:32:08.139Z,996.35
2022-10-17T12:33:09.532Z,996.41
2022-10-17T12:34:08.854Z,996.34
2022-10-17T12:35:11.640Z,996.37
2022-10-17T12:36:14.442Z,996.38
2022-10-17T12:37:17.529Z,996.4
2022-10-17T12:38:20.336Z,996.5
2022-10-17T12:39:23.155Z,996.44
2022-10-17T12:40:25.942Z,996.42
2022-10-17T12:41:28.742Z,996.38
2022-10-17T12:42:32.514Z,996.37
2022-10-17T12:43:32.219Z,996.37
2022-10-17T12:44:35.362Z,996.39
2022-10-17T12:45:38.152Z,996.38
2022-10-17T12:46:40.967Z,996.4
2022-10-17T12:47:44.390Z,996.36
2022-10-17T12:48:44.349Z,996.47
2022-10-17T12:49:47.166Z,996.4
2022-10-17T12:50:49.992Z,996.37
2022-10-17T12:51:52.818Z,996.34
2022-10-17T12:52:55.620Z,996.36
2022-10-17T12:53:58.405Z,996.38
2022-10-17T12:55:15.223Z,996.39
2022-10-17T12:56:04.157Z,996.33
2022-10-17T12:57:06.932Z,996.35
2022-10-17T12:58:09.722Z,996.4
2022-10-17T12:59:12.603Z,996.37
2022-10-17T13:00:15.412Z,996.35
2022-10-17T13:01:25.388Z,996.43
2022-10-17T13:02:21.580Z,996.4
2022-10-17T13:03:24.782Z,996.47
2022-10-17T13:04:27.735Z,996.36
2022-10-17T13:05:30.689Z,996.42
2022-10-17T13:06:33.472Z,996.4
2022-10-17T13:07:36.255Z,996.42
2022-10-17T13:08:39.073Z,996.39
2022-10-17T13:09:41.924Z,996.38
2022-10-17T13:10:50.232Z,996.46
2022-10-17T13:11:44.917Z,996.41
2022-10-17T13:12:47.732Z,996.4
2022-10-17T13:13:50.554Z,996.43
2022-10-17T13:14:53.339Z,996.42
2022-10-17T13:15:56.170Z,996.42
2022-10-17T13:16:58.995Z,996.44
2022-10-17T13:18:01.826Z,996.45
2022-10-17T13:19:04.641Z,996.46
2022-10-17T13:20:07.541Z,996.45
2022-10-17T13:21:10.385Z,996.44
2022-10-17T13:22:13.174Z,996.46
2022-10-17T13:23:15.974Z,996.47
2022-10-17T13:24:18.776Z,996.48
2022-10-17T13:25:21.608Z,996.49
2022-10-17T13:26:24.424Z,996.46
2022-10-17T13:27:27.214Z,996.52
2022-10-17T13:28:30.427Z,996.48
2022-10-17T13:29:33.383Z,996.52
2022-10-17T13:30:36.220Z,996.49
2022-10-17T13:31:39.160Z,996.51
2022-10-17T13:32:41.950Z,996.48
2022-10-17T13:33:44.828Z,996.5
2022-10-17T13:34:47.824Z,996.5
2022-10-17T13:36:06.359Z,996.46
2022-10-17T13:36:51.795Z,996.49
2022-10-17T13:37:54.625Z,996.55
2022-10-17T13:38:57.451Z,996.57
2022-10-17T13:40:50.226Z,996.48
2022-10-17T13:41:37.597Z,996.53
2022-10-17T13:42:02.226Z,996.55
2022-10-17T13:43:05.039Z,996.54
2022-10-17T13:44:07.872Z,996.5
2022-10-17T13:45:10.779Z,996.53
2022-10-17T13:46:39.758Z,996.57
2022-10-17T13:47:15.385Z,996.58
2022-10-17T13:48:18.321Z,996.59
2022-10-17T13:49:28.225Z,996.65
2022-10-17T13:50:45.366Z,996.69
2022-10-17T13:51:27.825Z,996.67
2022-10-17T13:52:31.894Z,996.75
2022-10-17T13:53:41.864Z,996.72
2022-10-17T13:54:34.249Z,996.8
2022-10-17T13:55:37.039Z,996.76
2022-10-17T13:56:39.835Z,996.73
2022-10-17T13:57:42.641Z,996.74
2022-10-17T13:58:45.437Z,996.74
2022-10-17T13:59:48.244Z,996.7
2022-10-17T14:00:51.856Z,996.7
2022-10-17T14:01:51.913Z,996.72
2022-10-17T14:02:54.746Z,996.7
2022-10-17T14:04:20.314Z,996.73
2022-10-17T14:05:19.834Z,996.75
2022-10-17T14:06:02.279Z,996.75
2022-10-17T14:07:05.385Z,996.73
2022-10-17T14:08:23.298Z,996.76
2022-10-17T14:09:09.254Z,996.76
2022-10-17T14:10:12.059Z,996.77
2022-10-17T14:11:14.865Z,996.74
2022-10-17T14:12:17.682Z,996.78
2022-10-17T14:13:20.486Z,996.77
2022-10-17T14:14:23.304Z,996.71
2022-10-17T14:15:26.107Z,996.75
2022-10-17T14:16:28.930Z,996.73
2022-10-17T14:17:33.395Z,996.76
2022-10-17T14:18:37.342Z,996.76
2022-10-17T14:19:33.199Z,996.79
2022-10-17T14:21:43.662Z,996.79
2022-10-17T14:21:45.173Z,996.8
2022-10-17T14:23:22.703Z,996.78
2022-10-17T14:23:47.637Z,996.79
2022-10-17T14:24:50.438Z,996.83
2022-10-17T14:25:53.233Z,996.85
2022-10-17T14:26:56.026Z,996.84
2022-10-17T14:27:58.854Z,996.87
2022-10-17T14:29:02.029Z,996.87
2022-10-17T14:30:04.901Z,996.88
2022-10-17T14:31:07.719Z,996.89
2022-10-17T14:32:10.536Z,996.91
2022-10-17T14:33:16.228Z,996.87
2022-10-17T14:34:15.567Z,996.96
2022-10-17T14:35:58.277Z,996.92
2022-10-17T14:36:19.425Z,996.92
2022-10-17T14:37:22.259Z,996.91
2022-10-17T14:38:25.246Z,996.87
2022-10-17T14:39:28.087Z,996.88
2022-10-17T14:40:30.878Z,996.86
2022-10-17T14:41:49.178Z,996.88
2022-10-17T14:42:34.747Z,996.85
2022-10-17T14:43:37.569Z,996.84
2022-10-17T14:44:40.371Z,996.81
2022-10-17T14:45:43.160Z,996.83
2022-10-17T14:46:51.486Z,996.83
2022-10-17T14:47:48.448Z,996.86
2022-10-17T14:48:48.565Z,996.82
2022-10-17T14:49:51.351Z,996.81
2022-10-17T14:50:54.143Z,996.84
2022-10-17T14:52:08.318Z,996.86
2022-10-17T14:52:57.288Z,996.87
2022-10-17T14:54:05.969Z,996.85
2022-10-17T14:55:01.856Z,996.86
2022-10-17T14:56:04.628Z,996.87
2022-10-17T14:57:07.422Z,996.89
2022-10-17T14:58:10.236Z,996.87
2022-10-17T14:59:54.091Z,996.91
2022-10-17T15:00:15.467Z,996.89
2022-10-17T15:01:18.247Z,996.93
2022-10-17T15:02:21.225Z,996.93
2022-10-17T15:03:24.606Z,996.91
2022-10-17T15:04:24.328Z,996.98
2022-10-17T15:05:27.129Z,996.96
2022-10-17T15:06:29.949Z,996.97
2022-10-17T15:07:32.755Z,996.96
2022-10-17T15:08:35.815Z,996.93
2022-10-17T15:09:38.941Z,996.97
2022-10-17T15:10:41.806Z,996.94
2022-10-17T15:11:44.640Z,996.95
2022-10-17T15:13:27.470Z,996.98
2022-10-17T15:13:49.152Z,996.93
2022-10-17T15:14:52.060Z,996.98
2022-10-17T15:15:54.891Z,996.98
2022-10-17T15:16:57.742Z,997.01
2022-10-17T15:18:00.562Z,997.02
2022-10-17T15:19:03.415Z,997.06
2022-10-17T15:20:06.204Z,997.05
2022-10-17T15:21:40.690Z,997.05
2022-10-17T15:22:10.179Z,997.04
2022-10-17T15:23:13.017Z,997.01
2022-10-17T15:24:15.812Z,997.04
2022-10-17T15:25:18.722Z,997.06
2022-10-17T15:26:21.514Z,997.09
2022-10-17T15:27:24.333Z,997.09
2022-10-17T15:28:27.378Z,997.04
2022-10-17T15:29:30.262Z,997.07
2022-10-17T15:30:33.066Z,997.09
2022-10-17T15:31:35.904Z,997.04
2022-10-17T15:32:38.938Z,997.05
2022-10-17T15:33:41.716Z,997.02
2022-10-17T15:34:44.516Z,997.04
2022-10-17T15:35:47.639Z,997.04
2022-10-17T15:36:50.539Z,997.05
2022-10-17T15:37:53.343Z,997.06
2022-10-17T15:38:56.131Z,997.05
2022-10-17T15:39:58.956Z,997.05
2022-10-17T15:41:02.119Z,997.07
2022-10-17T15:42:04.922Z,997.04
2022-10-17T15:43:07.711Z,997.05
2022-10-17T15:44:10.518Z,997.07
2022-10-17T15:45:13.355Z,997.1
2022-10-17T15:46:16.153Z,997.07
2022-10-17T15:47:18.983Z,997.04
2022-10-17T15:48:21.776Z,997.05
2022-10-17T15:49:24.571Z,997.05
2022-10-17T15:50:27.405Z,997.04
2022-10-17T15:51:30.240Z,997.07
2022-10-17T15:52:33.090Z,997.08
2022-10-17T15:53:35.916Z,997.12
2022-10-17T15:54:38.713Z,997.06
2022-10-17T15:55:41.901Z,997.06
2022-10-17T15:56:44.804Z,997.02
2022-10-17T15:57:47.629Z,997.03
2022-10-17T15:58:51.263Z,997.06
2022-10-17T15:59:50.873Z,997.08
2022-10-17T16:00:54.910Z,997.05
2022-10-17T16:01:54.596Z,997.1
2022-10-17T16:02:57.406Z,997.13
2022-10-17T16:04:00.286Z,997.13
2022-10-17T16:05:03.099Z,997.11
2022-10-17T16:06:13.556Z,997.14
2022-10-17T16:07:06.813Z,997.14
2022-10-17T16:08:09.611Z,997.15
2022-10-17T16:09:12.433Z,997.16
2022-10-17T16:10:15.247Z,997.17
2022-10-17T16:11:18.063Z,997.13
2022-10-17T16:12:21.003Z,997.08
2022-10-17T16:13:23.851Z,997.13
2022-10-17T16:14:26.642Z,997.15
2022-10-17T16:15:29.410Z,997.19
2022-10-17T16:16:32.192Z,997.19
2022-10-17T16:17:35.014Z,997.21
2022-10-17T16:18:37.828Z,997.24
2022-10-17T16:19:40.604Z,997.31
2022-10-17T16:20:43.402Z,997.28
2022-10-17T16:21:46.219Z,997.32
2022-10-17T16:22:49.086Z,997.33
2022-10-17T16:23:51.915Z,997.35
2022-10-17T16:24:54.755Z,997.32
2022-10-17T16:25:57.566Z,997.33
2022-10-17T16:27:00.408Z,997.38
2022-10-17T16:28:03.404Z,997.38
2022-10-17T16:29:06.566Z,997.37
2022-10-17T16:30:09.994Z,997.36
2022-10-17T16:31:09.448Z,997.37
2022-10-17T16:32:12.241Z,997.38
2022-10-17T16:33:15.053Z,997.4
2022-10-17T16:34:17.867Z,997.4
2022-10-17T16:35:20.694Z,997.46
2022-10-17T16:36:23.527Z,997.47
2022-10-17T16:37:26.295Z,997.51
2022-10-17T16:38:29.112Z,997.48
2022-10-17T16:39:31.925Z,997.56
2022-10-17T16:40:34.709Z,997.58
2022-10-17T16:41:37.503Z,997.57
2022-10-17T16:42:40.364Z,997.58
2022-10-17T16:43:43.243Z,997.59
2022-10-17T16:44:46.045Z,997.62
2022-10-17T16:45:48.885Z,997.62
2022-10-17T16:46:51.688Z,997.62
2022-10-17T16:47:54.474Z,997.64
2022-10-17T16:48:57.313Z,997.63
2022-10-17T16:50:00.107Z,997.66
2022-10-17T16:51:02.881Z,997.67
2022-10-17T16:52:05.648Z,997.7
2022-10-17T16:53:08.446Z,997.68
2022-10-17T16:54:11.242Z,997.68
2022-10-17T16:55:14.063Z,997.69
2022-10-17T16:56:16.845Z,997.7
2022-10-17T16:57:19.668Z,997.76
2022-10-17T16:58:22.441Z,997.78
2022-10-17T16:59:25.294Z,997.78
2022-10-17T17:00:28.378Z,997.81
2022-10-17T17:01:31.265Z,997.81
2022-10-17T17:02:35.286Z,997.87
2022-10-17T17:03:34.836Z,997.85
2022-10-17T17:04:37.629Z,997.88
2022-10-17T17:05:40.443Z,997.91
2022-10-17T17:06:43.230Z,997.9
2022-10-17T17:07:46.042Z,997.95
2022-10-17T17:08:48.839Z,997.95
2022-10-17T17:09:51.633Z,997.97
2022-10-17T17:10:54.425Z,997.95
2022-10-17T17:11:57.249Z,997.97
2022-10-17T17:13:00.068Z,997.93
2022-10-17T17:14:02.852Z,998
2022-10-17T17:15:05.775Z,998.02
2022-10-17T17:16:12.573Z,998.04
2022-10-17T17:17:50.409Z,998.05
2022-10-17T17:18:12.662Z,998.02
2022-10-17T17:19:18.454Z,998.02
2022-10-17T17:20:17.802Z,998.02
2022-10-17T17:21:20.619Z,998
2022-10-17T17:22:26.353Z,998.01
2022-10-17T17:23:25.704Z,998
2022-10-17T17:24:28.504Z,998.03
2022-10-17T17:25:31.275Z,997.98
2022-10-17T17:26:34.211Z,998
2022-10-17T17:27:36.999Z,998.05
2022-10-17T17:28:40.373Z,998.04
2022-10-17T17:29:39.842Z,998.03
2022-10-17T17:30:42.677Z,998.02
2022-10-17T17:31:45.485Z,998.06
2022-10-17T17:32:48.285Z,998.04
2022-10-17T17:33:51.350Z,998.11
2022-10-17T17:34:54.175Z,998.09
2022-10-17T17:35:56.986Z,998.09
2022-10-17T17:36:59.765Z,998.09
2022-10-17T17:38:02.561Z,998.11
2022-10-17T17:39:05.353Z,998.15
2022-10-17T17:40:08.129Z,998.15
2022-10-17T17:41:11.050Z,998.12
2022-10-17T17:42:13.851Z,998.18
2022-10-17T17:43:16.644Z,998.16
2022-10-17T17:44:19.475Z,998.17
2022-10-17T17:45:22.338Z,998.21
2022-10-17T17:46:25.245Z,998.22
2022-10-17T17:47:29.088Z,998.2
2022-10-17T17:48:28.734Z,998.27
2022-10-17T17:49:31.514Z,998.24
2022-10-17T17:50:34.290Z,998.23
2022-10-17T17:51:37.075Z,998.29
2022-10-17T17:52:39.904Z,998.28
2022-10-17T17:53:42.709Z,998.28
2022-10-17T17:54:45.505Z,998.33
2022-10-17T17:55:48.347Z,998.32
2022-10-17T17:56:51.146Z,998.29
2022-10-17T17:57:53.969Z,998.33
2022-10-17T17:58:56.771Z,998.35
2022-10-17T17:59:59.563Z,998.34
2022-10-17T18:01:02.561Z,998.37
2022-10-17T18:02:05.801Z,998.38
2022-10-17T18:03:08.720Z,998.35
2022-10-17T18:04:11.525Z,998.41
2022-10-17T18:05:14.395Z,998.41
2022-10-17T18:06:17.183Z,998.44
2022-10-17T18:07:19.973Z,998.45
2022-10-17T18:08:22.787Z,998.45
2022-10-17T18:09:25.574Z,998.46
2022-10-17T18:10:28.373Z,998.46
2022-10-17T18:11:31.168Z,998.52
2022-10-17T18:12:33.965Z,998.5
2022-10-17T18:13:36.795Z,998.51
2022-10-17T18:14:39.577Z,998.49
2022-10-17T18:15:42.467Z,998.47
2022-10-17T18:16:45.273Z,998.49
2022-10-17T18:17:48.160Z,998.53
2022-10-17T18:18:51.010Z,998.56
2022-10-17T18:19:53.799Z,998.59
2022-10-17T18:20:56.599Z,998.59
2022-10-17T18:21:59.395Z,998.6
2022-10-17T18:30:34.662Z,998.63
2022-10-17T18:31:24.929Z,998.63
2022-10-17T18:32:29.627Z,998.68
2022-10-17T18:33:29.991Z,998.64
2022-10-17T18:34:32.766Z,998.63
2022-10-17T18:35:35.580Z,998.66
2022-10-17T18:36:38.368Z,998.66
2022-10-17T18:38:43.944Z,998.68
2022-10-17T18:39:46.766Z,998.71
2022-10-17T18:40:51.149Z,998.73
2022-10-17T18:41:50.478Z,998.69
2022-10-17T18:42:53.346Z,998.7
2022-10-17T18:46:29.264Z,998.73
2022-10-17T18:47:33.455Z,998.75
2022-10-17T18:48:35.856Z,998.73
2022-10-17T18:49:35.547Z,998.69
